createdAt,value
2019-03-30T00:04:25.090Z,19.65
2019-03-30T00:10:58.872Z,19.20
2019-03-30T00:16:07.060Z,19.65
2019-03-30T00:21:15.121Z,19.30
2019-03-30T00:26:23.272Z,18.87
2019-03-30T00:31:31.284Z,20.10
2019-03-30T00:36:38.914Z,20.52
2019-03-30T00:41:47.212Z,20.08
2019-03-30T00:46:55.262Z,20.15
2019-03-30T00:55:40.679Z,19.40
2019-03-30T01:00:48.698Z,19.10
2019-03-30T01:05:58.251Z,19.70
2019-03-30T01:11:06.261Z,18.65
2019-03-30T01:21:21.057Z,18.42
2019-03-30T01:26:29.038Z,19.75
2019-03-30T01:31:37.108Z,18.37
2019-03-30T01:36:45.614Z,19.37
2019-03-30T01:41:53.641Z,19.62
2019-03-30T01:47:01.546Z,19.42
2019-03-30T01:52:09.347Z,18.27
2019-03-30T02:02:24.064Z,18.90
2019-03-30T02:07:31.931Z,19.57
2019-03-30T02:12:40.937Z,20.10
2019-03-30T02:17:49.669Z,20.80
2019-03-30T02:22:57.441Z,21.48
2019-03-30T02:28:06.874Z,20.53
2019-03-30T02:37:32.687Z,19.85
2019-03-30T02:42:40.450Z,19.23
2019-03-30T02:47:48.066Z,20.00
2019-03-30T02:52:56.088Z,18.80
2019-03-30T02:58:04.081Z,19.44
2019-03-30T03:05:22.381Z,19.25
2019-03-30T03:10:30.284Z,20.80
2019-03-30T03:15:40.053Z,18.35
2019-03-30T03:21:06.140Z,20.72
2019-03-30T03:25:58.051Z,24.37
2019-03-30T03:31:07.136Z,20.90
2019-03-30T03:36:15.064Z,20.35
2019-03-30T03:41:23.071Z,19.07
2019-03-30T03:46:31.241Z,16.60
2019-03-30T03:51:39.580Z,17.48
2019-03-30T03:56:49.636Z,17.73
2019-03-30T04:07:05.078Z,18.52
2019-03-30T04:12:15.070Z,19.12
2019-03-30T04:22:31.057Z,17.65
2019-03-30T04:32:45.502Z,18.02
2019-03-30T04:43:00.143Z,19.20
2019-03-30T04:48:08.228Z,18.87
2019-03-30T04:53:16.256Z,19.75
2019-03-30T04:58:24.268Z,21.48
2019-03-30T05:03:32.250Z,19.92
2019-03-30T05:08:40.270Z,20.32
2019-03-30T05:13:48.157Z,18.82
2019-03-30T05:18:56.019Z,19.15
2019-03-30T05:24:04.126Z,19.48
2019-03-30T05:29:12.061Z,17.77
2019-03-30T05:34:19.923Z,19.37
2019-03-30T05:39:27.897Z,19.25
2019-03-30T05:44:35.836Z,19.15
2019-03-30T05:49:44.029Z,21.42
2019-03-30T05:54:51.896Z,18.57
2019-03-30T05:59:59.927Z,19.45
2019-03-30T06:05:08.421Z,19.35
2019-03-30T06:10:16.419Z,19.40
2019-03-30T06:15:24.066Z,21.25
2019-03-30T06:20:31.924Z,20.72
2019-03-30T06:25:40.049Z,21.62
2019-03-30T06:30:48.072Z,20.75
2019-03-30T06:35:55.887Z,21.37
2019-03-30T06:41:03.921Z,22.10
2019-03-30T06:51:19.097Z,21.77
2019-03-30T06:56:27.233Z,21.57
2019-03-30T07:01:35.250Z,23.92
2019-03-30T07:06:43.649Z,22.25
2019-03-30T07:11:54.089Z,21.50
2019-03-30T07:22:10.238Z,22.73
2019-03-30T07:32:25.400Z,23.52
2019-03-30T07:42:39.747Z,24.27
2019-03-30T07:47:47.914Z,25.62
2019-03-30T07:52:56.904Z,24.35
2019-03-30T07:58:05.269Z,26.93
2019-03-30T08:03:13.242Z,25.90
2019-03-30T08:08:21.053Z,25.25
2019-03-30T08:13:28.904Z,23.90
2019-03-30T08:18:36.731Z,23.22
2019-03-30T08:23:44.881Z,24.92
2019-03-30T08:28:53.226Z,23.00
2019-03-30T08:34:01.245Z,24.35
2019-03-30T08:39:10.108Z,23.62
2019-03-30T08:49:24.410Z,26.47
2019-03-30T08:54:32.500Z,24.10
2019-03-30T08:59:40.524Z,24.77
2019-03-30T09:04:48.540Z,25.30
2019-03-30T09:09:56.649Z,26.37
2019-03-30T09:15:04.844Z,27.15
2019-03-30T09:25:19.617Z,23.22
2019-03-30T09:30:27.835Z,23.27
2019-03-30T09:35:35.639Z,24.18
2019-03-30T09:45:50.046Z,23.70
2019-03-30T09:50:58.051Z,21.40
2019-03-30T10:01:12.430Z,20.57
2019-03-30T10:12:08.761Z,18.82
2019-03-30T10:20:59.684Z,21.87
2019-03-30T10:35:07.042Z,18.67
2019-03-30T10:40:15.588Z,19.07
2019-03-30T10:45:23.607Z,15.87
2019-03-30T10:50:31.457Z,15.35
2019-03-30T10:55:39.247Z,16.15
2019-03-30T11:01:11.075Z,14.40
2019-03-30T11:11:26.471Z,11.78
2019-03-30T11:16:34.288Z,11.78
2019-03-30T11:23:26.639Z,12.58
2019-03-30T11:28:34.583Z,12.13
2019-03-30T11:38:03.681Z,12.17
2019-03-30T11:43:11.608Z,15.43
2019-03-30T11:48:19.650Z,10.53
2019-03-30T11:53:27.579Z,11.60
2019-03-30T11:59:35.612Z,11.83
2019-03-30T12:04:43.591Z,11.70
2019-03-30T12:09:51.558Z,12.20
2019-03-30T12:14:59.474Z,12.53
2019-03-30T12:24:51.653Z,13.40
2019-03-30T12:38:30.666Z,12.55
2019-03-30T12:43:39.180Z,12.58
2019-03-30T12:53:33.636Z,13.50
2019-03-30T12:58:41.588Z,13.58
2019-03-30T13:03:49.477Z,12.03
2019-03-30T13:08:57.253Z,11.97
2019-03-30T13:19:11.656Z,12.33
2019-03-30T13:29:25.921Z,11.65
2019-03-30T13:34:34.608Z,43.10
2019-03-30T13:39:42.614Z,12.05
2019-03-30T13:49:57.036Z,11.22
2019-03-30T13:55:06.124Z,11.50
2019-03-30T14:01:34.171Z,11.43
2019-03-30T14:07:36.064Z,10.40
2019-03-30T14:12:44.046Z,12.20
2019-03-30T14:20:56.644Z,12.25
2019-03-30T14:26:31.276Z,12.40
2019-03-30T14:34:19.647Z,13.45
2019-03-30T14:48:40.852Z,14.18
2019-03-30T14:53:48.667Z,13.20
2019-03-30T14:59:09.446Z,14.50
2019-03-30T15:04:06.067Z,14.70
2019-03-30T15:11:38.678Z,14.83
2019-03-30T15:16:46.634Z,15.32
2019-03-30T15:21:54.417Z,15.55
2019-03-30T15:32:18.914Z,15.08
2019-03-30T15:38:45.646Z,14.43
2019-03-30T15:52:24.674Z,16.10
2019-03-30T15:57:33.893Z,15.18
2019-03-30T16:02:41.857Z,10.28
2019-03-30T16:11:26.682Z,16.67
2019-03-30T16:16:34.578Z,12.98
2019-03-30T16:21:42.432Z,13.72
2019-03-30T16:26:50.263Z,12.85
2019-03-30T16:31:58.088Z,13.40
2019-03-30T16:48:55.892Z,13.72
2019-03-30T16:54:03.733Z,12.55
2019-03-30T17:04:20.094Z,12.85
2019-03-30T17:14:34.242Z,11.90
2019-03-30T17:27:57.566Z,13.13
2019-03-30T17:37:25.733Z,13.68
2019-03-30T17:42:33.647Z,15.15
2019-03-30T17:47:41.583Z,22.20
2019-03-30T17:52:49.621Z,15.00
2019-03-30T17:58:11.974Z,16.97
2019-03-30T18:08:13.428Z,19.47
2019-03-30T18:13:22.228Z,18.82
2019-03-30T18:18:30.046Z,16.90
2019-03-30T18:26:43.667Z,18.50
2019-03-30T18:31:52.024Z,15.98
2019-03-30T18:38:15.763Z,16.00
2019-03-30T18:43:23.699Z,15.48
2019-03-30T18:53:38.595Z,15.83
2019-03-30T19:09:10.260Z,17.02
2019-03-30T19:20:54.647Z,18.70
2019-03-30T19:26:02.574Z,19.30
2019-03-30T19:36:27.956Z,23.00
2019-03-30T19:41:35.859Z,24.02
2019-03-30T19:46:43.698Z,24.33
2019-03-30T19:51:51.583Z,23.42
2019-03-30T19:56:59.414Z,23.32
2019-03-30T20:02:07.390Z,23.10
2019-03-30T20:15:28.751Z,21.73
2019-03-30T20:25:25.808Z,23.35
2019-03-30T20:35:38.627Z,24.52
2019-03-30T20:40:46.583Z,23.40
2019-03-30T20:45:54.502Z,22.45
2019-03-30T20:56:00.672Z,22.25
2019-03-30T21:04:57.893Z,22.75
2019-03-30T21:10:06.636Z,22.07
2019-03-30T21:15:14.662Z,22.22
2019-03-30T21:22:26.676Z,22.95
2019-03-30T21:29:54.408Z,23.15
2019-03-30T21:34:55.121Z,21.90
2019-03-30T21:45:10.730Z,23.50
2019-03-30T22:00:39.605Z,25.10
2019-03-30T22:11:55.843Z,24.32
2019-03-30T22:17:03.678Z,24.37
2019-03-30T22:22:11.586Z,22.90
2019-03-30T22:27:19.534Z,23.45
2019-03-30T22:37:48.252Z,30.77
2019-03-30T22:46:07.919Z,26.85
2019-03-30T22:52:12.072Z,27.73
2019-03-30T23:01:11.572Z,28.80
2019-03-30T23:06:21.079Z,28.15
2019-03-30T23:11:29.088Z,25.97
2019-03-30T23:24:00.919Z,24.82
2019-03-30T23:34:15.290Z,23.57
2019-03-30T23:44:29.622Z,23.87
2019-03-30T23:51:39.727Z,24.75
2019-03-30T23:56:47.583Z,22.98
